createdAt,value
2018-12-24T00:00:57.036Z,64.11
2018-12-24T00:03:28.707Z,64.95
2018-12-24T00:06:00.157Z,63.71
2018-12-24T00:08:35.168Z,63.07
2018-12-24T00:11:16.978Z,62.63
2018-12-24T00:14:16.155Z,60.48
2018-12-24T00:16:47.619Z,64.43
2018-12-24T00:19:16.860Z,60.26
2018-12-24T00:21:50.941Z,61.28
2018-12-24T00:24:25.323Z,62.79
2018-12-24T00:26:59.556Z,61.17
2018-12-24T00:29:33.236Z,62.29
2018-12-24T00:32:14.447Z,60.57
2018-12-24T00:34:44.198Z,62.08
2018-12-24T00:37:14.013Z,61.76
2018-12-24T00:39:43.053Z,61.14
2018-12-24T00:42:15.983Z,61.48
2018-12-24T00:44:43.888Z,63.60
2018-12-24T00:47:24.582Z,63.39
2018-12-24T00:49:56.892Z,62.18
2018-12-24T00:52:26.552Z,63.97
2018-12-24T00:54:56.057Z,65.24
2018-12-24T00:57:25.633Z,64.00
2018-12-24T00:59:55.189Z,64.24
2018-12-24T01:02:24.432Z,63.06
2018-12-24T01:04:53.935Z,62.39
2018-12-24T01:07:23.558Z,64.59
2018-12-24T01:09:52.844Z,63.32
2018-12-24T01:12:24.658Z,61.39
2018-12-24T01:14:53.293Z,65.33
2018-12-24T01:17:22.894Z,63.88
2018-12-24T01:19:52.923Z,61.40
2018-12-24T01:22:22.170Z,61.66
2018-12-24T01:24:51.623Z,62.40
2018-12-24T01:27:21.135Z,63.49
2018-12-24T01:29:50.534Z,62.03
2018-12-24T01:32:19.815Z,61.99
2018-12-24T01:34:49.435Z,63.28
2018-12-24T01:37:19.242Z,63.96
2018-12-24T01:39:48.169Z,61.59
2018-12-24T01:42:17.128Z,61.85
2018-12-24T01:44:46.843Z,63.38
2018-12-24T01:47:16.237Z,63.91
2018-12-24T01:49:46.152Z,64.71
2018-12-24T01:52:15.569Z,64.96
2018-12-24T01:54:44.854Z,64.65
2018-12-24T01:57:14.807Z,70.81
2018-12-24T01:59:44.922Z,74.33
2018-12-24T02:02:17.278Z,79.74
2018-12-24T02:04:46.301Z,78.47
2018-12-24T02:07:15.762Z,77.28
2018-12-24T02:09:44.758Z,74.46
2018-12-24T02:12:14.159Z,83.84
2018-12-24T02:14:43.790Z,85.88
2018-12-24T02:17:13.378Z,85.88
2018-12-24T02:19:42.687Z,94.06
2018-12-24T02:22:12.963Z,63.44
2018-12-24T02:24:42.778Z,87.58
2018-12-24T02:27:12.451Z,100.00
2018-12-24T02:29:42.180Z,100.00
2018-12-24T02:32:11.438Z,49.73
2018-12-24T02:34:41.051Z,70.87
2018-12-24T02:37:10.557Z,70.87
2018-12-24T02:39:41.067Z,70.87
2018-12-24T02:42:10.779Z,71.81
2018-12-24T02:44:40.192Z,74.55
2018-12-24T02:47:09.506Z,72.16
2018-12-24T02:49:39.583Z,71.71
2018-12-24T02:52:09.239Z,75.17
2018-12-24T02:54:39.131Z,72.56
2018-12-24T02:57:08.666Z,74.25
2018-12-24T02:59:38.245Z,70.96
2018-12-24T03:02:07.845Z,72.97
2018-12-24T03:04:37.553Z,73.56
2018-12-24T03:07:06.858Z,73.64
2018-12-24T03:09:36.733Z,73.57
2018-12-24T03:12:05.972Z,73.66
2018-12-24T03:14:35.914Z,73.85
2018-12-24T03:17:04.930Z,79.74
2018-12-24T03:19:34.086Z,73.48
2018-12-24T03:22:04.013Z,100.00
2018-12-24T03:24:33.607Z,100.00
2018-12-24T03:27:04.034Z,100.00
2018-12-24T03:29:34.640Z,100.00
2018-12-24T03:32:03.883Z,100.00
2018-12-24T03:34:33.270Z,100.00
2018-12-24T03:37:02.890Z,100.00
2018-12-24T03:39:32.297Z,100.00
2018-12-24T03:42:01.832Z,100.00
2018-12-24T03:44:32.119Z,100.00
2018-12-24T03:47:01.414Z,100.00
2018-12-24T03:49:31.291Z,73.48
2018-12-24T03:52:00.655Z,100.00
2018-12-24T03:54:30.340Z,100.00
2018-12-24T03:56:59.999Z,100.00
2018-12-24T03:59:29.510Z,100.00
2018-12-24T04:01:58.559Z,100.00
2018-12-24T04:04:28.146Z,100.00
2018-12-24T04:06:58.058Z,100.00
2018-12-24T04:09:28.033Z,100.00
2018-12-24T04:11:57.500Z,100.00
2018-12-24T04:14:27.532Z,100.00
2018-12-24T04:16:57.216Z,100.00
2018-12-24T04:19:27.053Z,100.00
2018-12-24T04:21:56.797Z,100.00
2018-12-24T04:24:26.542Z,100.00
2018-12-24T04:26:55.950Z,100.00
2018-12-24T04:29:25.750Z,100.00
2018-12-24T04:31:55.164Z,100.00
2018-12-24T04:34:25.090Z,100.00
2018-12-24T04:36:55.308Z,100.00
2018-12-24T04:39:24.905Z,100.00
2018-12-24T04:41:54.743Z,100.00
2018-12-24T04:44:24.328Z,100.00
2018-12-24T04:46:54.201Z,100.00
2018-12-24T04:49:23.580Z,100.00
2018-12-24T04:51:52.651Z,100.00
2018-12-24T04:54:22.474Z,100.00
2018-12-24T04:56:51.415Z,100.00
2018-12-24T04:59:21.651Z,100.00
2018-12-24T05:01:50.720Z,73.48
2018-12-24T05:04:20.400Z,100.00
2018-12-24T05:06:50.070Z,100.00
2018-12-24T05:09:19.687Z,76.36
2018-12-24T05:11:49.294Z,100.00
2018-12-24T05:14:18.443Z,100.00
2018-12-24T05:16:47.619Z,73.48
2018-12-24T05:19:16.511Z,63.27
2018-12-24T05:21:46.084Z,100.00
2018-12-24T05:24:15.475Z,62.00
2018-12-24T05:26:44.650Z,58.80
2018-12-24T05:29:13.718Z,58.86
2018-12-24T05:31:43.270Z,100.00
2018-12-24T05:34:13.093Z,100.00
2018-12-24T05:36:42.232Z,100.00
2018-12-24T05:39:11.594Z,100.00
2018-12-24T05:41:41.624Z,100.00
2018-12-24T05:44:10.649Z,100.00
2018-12-24T05:46:40.012Z,100.00
2018-12-24T05:49:09.021Z,58.80
2018-12-24T05:51:38.192Z,55.38
2018-12-24T05:54:07.290Z,53.17
2018-12-24T05:56:36.544Z,52.41
2018-12-24T05:59:06.926Z,50.81
2018-12-24T06:01:36.529Z,49.12
2018-12-24T06:04:05.560Z,52.34
2018-12-24T06:06:35.134Z,49.31
2018-12-24T06:09:05.500Z,48.53
2018-12-24T06:11:35.162Z,49.23
2018-12-24T06:14:04.579Z,49.61
2018-12-24T06:16:34.385Z,48.54
2018-12-24T06:19:03.517Z,47.54
2018-12-24T06:21:32.787Z,45.65
2018-12-24T06:24:02.803Z,42.93
2018-12-24T06:26:32.448Z,44.97
2018-12-24T06:29:01.908Z,45.80
2018-12-24T06:31:31.191Z,43.41
2018-12-24T06:34:01.047Z,45.03
2018-12-24T06:36:30.076Z,46.19
2018-12-24T06:38:59.411Z,42.06
2018-12-24T06:41:28.921Z,43.51
2018-12-24T06:44:06.547Z,44.54
2018-12-24T06:46:29.042Z,41.87
2018-12-24T06:48:58.384Z,42.81
2018-12-24T06:51:27.650Z,42.42
2018-12-24T06:53:58.084Z,42.07
2018-12-24T06:56:27.073Z,44.06
2018-12-24T06:58:56.380Z,41.89
2018-12-24T07:01:25.990Z,46.53
2018-12-24T07:03:55.597Z,43.94
2018-12-24T07:06:25.326Z,41.59
2018-12-24T07:08:55.661Z,40.66
2018-12-24T07:11:24.963Z,42.87
2018-12-24T07:13:54.637Z,47.21
2018-12-24T07:16:24.139Z,46.51
2018-12-24T07:18:53.463Z,45.44
2018-12-24T07:21:22.905Z,44.47
2018-12-24T07:23:52.685Z,43.29
2018-12-24T07:26:22.927Z,43.31
2018-12-24T07:28:59.072Z,44.85
2018-12-24T07:31:23.814Z,48.26
2018-12-24T07:33:53.244Z,46.78
2018-12-24T07:36:22.235Z,40.88
2018-12-24T07:38:52.352Z,45.48
2018-12-24T07:41:22.060Z,40.89
2018-12-24T07:43:51.165Z,42.22
2018-12-24T07:46:20.670Z,40.58
2018-12-24T07:48:49.966Z,43.92
2018-12-24T07:51:19.517Z,40.51
2018-12-24T07:53:48.750Z,41.00
2018-12-24T07:56:18.064Z,41.19
2018-12-24T07:58:47.481Z,42.58
2018-12-24T08:01:16.971Z,39.65
2018-12-24T08:03:46.598Z,38.44
2018-12-24T08:06:15.624Z,38.51
2018-12-24T08:08:45.202Z,38.40
2018-12-24T08:11:14.207Z,38.49
2018-12-24T08:13:43.517Z,42.41
2018-12-24T08:16:12.899Z,38.91
2018-12-24T08:18:42.183Z,37.61
2018-12-24T08:21:11.491Z,36.46
2018-12-24T08:23:40.502Z,37.27
2018-12-24T08:26:09.680Z,37.13
2018-12-24T08:28:39.351Z,37.00
2018-12-24T08:31:08.724Z,37.86
2018-12-24T08:33:38.398Z,39.03
2018-12-24T08:36:08.417Z,38.19
2018-12-24T08:38:37.619Z,39.23
2018-12-24T08:41:06.907Z,38.22
2018-12-24T08:43:36.047Z,37.10
2018-12-24T08:46:05.133Z,36.97
2018-12-24T08:48:34.508Z,36.50
2018-12-24T08:51:04.340Z,37.11
2018-12-24T08:53:33.621Z,38.49
2018-12-24T08:56:02.799Z,37.30
2018-12-24T08:58:31.693Z,38.51
2018-12-24T09:01:00.677Z,38.87
2018-12-24T09:03:30.315Z,36.66
2018-12-24T09:06:00.123Z,37.38
2018-12-24T09:08:29.478Z,36.55
2018-12-24T09:10:58.522Z,35.39
2018-12-24T09:13:28.154Z,34.34
2018-12-24T09:15:57.531Z,35.38
2018-12-24T09:18:27.376Z,35.82
2018-12-24T09:20:56.747Z,39.10
2018-12-24T09:23:26.151Z,40.46
2018-12-24T09:25:56.270Z,40.83
2018-12-24T09:28:25.612Z,39.84
2018-12-24T09:30:54.977Z,40.97
2018-12-24T09:33:25.090Z,38.08
2018-12-24T09:35:54.394Z,39.07
2018-12-24T09:38:23.437Z,38.86
2018-12-24T09:40:52.459Z,39.08
2018-12-24T09:43:43.395Z,40.65
2018-12-24T09:46:31.522Z,41.09
2018-12-24T09:49:00.781Z,38.25
2018-12-24T09:51:29.995Z,39.54
2018-12-24T09:53:59.314Z,37.91
2018-12-24T09:56:28.866Z,35.58
2018-12-24T09:58:58.158Z,37.59
2018-12-24T10:01:27.162Z,38.06
2018-12-24T10:04:02.871Z,34.99
2018-12-24T10:06:33.728Z,34.47
2018-12-24T10:09:08.433Z,34.41
2018-12-24T10:11:37.631Z,38.42
2018-12-24T10:14:06.979Z,35.69
2018-12-24T10:16:36.390Z,34.44
2018-12-24T10:19:05.459Z,36.63
2018-12-24T10:21:34.770Z,37.63
2018-12-24T10:24:03.937Z,36.86
2018-12-24T10:26:33.421Z,36.98
2018-12-24T10:29:02.299Z,34.10
2018-12-24T10:31:31.619Z,35.35
2018-12-24T10:34:01.819Z,38.37
2018-12-24T10:36:31.150Z,38.85
2018-12-24T10:39:00.130Z,34.29
2018-12-24T10:41:29.778Z,35.18
2018-12-24T10:43:59.822Z,33.54
2018-12-24T10:46:28.824Z,33.50
2018-12-24T10:48:58.836Z,32.75
2018-12-24T10:51:28.082Z,32.37
2018-12-24T10:53:57.490Z,32.19
2018-12-24T10:56:26.786Z,32.14
2018-12-24T10:58:55.994Z,32.25
2018-12-24T11:01:24.981Z,31.42
2018-12-24T11:03:54.784Z,31.80
2018-12-24T11:06:24.173Z,31.03
2018-12-24T11:08:53.142Z,31.69
2018-12-24T11:11:22.598Z,32.15
2018-12-24T11:13:52.006Z,31.33
2018-12-24T11:16:25.237Z,30.72
2018-12-24T11:18:55.231Z,32.92
2018-12-24T11:21:24.736Z,31.18
2018-12-24T11:23:54.124Z,34.40
2018-12-24T11:26:23.399Z,34.57
2018-12-24T11:28:52.859Z,36.79
2018-12-24T11:31:21.941Z,35.14
2018-12-24T11:33:51.164Z,35.79
2018-12-24T11:36:21.100Z,33.69
2018-12-24T11:38:50.146Z,32.05
2018-12-24T11:41:19.156Z,34.90
2018-12-24T11:43:48.406Z,35.35
2018-12-24T11:46:17.343Z,33.38
2018-12-24T11:48:47.098Z,32.16
2018-12-24T11:51:16.310Z,33.76
2018-12-24T11:53:45.640Z,35.18
2018-12-24T11:56:15.532Z,33.99
2018-12-24T11:58:44.943Z,35.11
2018-12-24T12:01:14.435Z,33.08
2018-12-24T12:03:44.028Z,34.67
2018-12-24T12:06:19.664Z,34.17
2018-12-24T12:08:46.144Z,33.76
2018-12-24T12:11:15.421Z,34.18
2018-12-24T12:13:44.925Z,33.72
2018-12-24T12:16:14.270Z,33.78
2018-12-24T12:18:43.951Z,34.23
2018-12-24T12:21:36.138Z,33.09
2018-12-24T12:24:29.523Z,32.72
2018-12-24T12:26:59.657Z,33.18
2018-12-24T12:29:30.091Z,35.26
2018-12-24T12:31:59.487Z,34.29
2018-12-24T12:34:30.014Z,35.80
2018-12-24T12:36:59.837Z,35.09
2018-12-24T12:39:29.128Z,32.76
2018-12-24T12:41:58.628Z,33.21
2018-12-24T12:44:27.649Z,31.40
2018-12-24T12:46:56.963Z,31.88
2018-12-24T12:49:26.563Z,30.12
2018-12-24T12:51:56.001Z,30.19
2018-12-24T12:54:25.639Z,32.33
2018-12-24T12:56:54.684Z,30.42
2018-12-24T12:59:24.261Z,30.44
2018-12-24T13:01:53.370Z,29.76
2018-12-24T13:04:22.327Z,37.61
2018-12-24T13:06:52.051Z,30.68
2018-12-24T13:09:21.771Z,32.46
2018-12-24T13:11:51.407Z,31.01
2018-12-24T13:14:21.164Z,30.43
2018-12-24T13:16:51.046Z,32.33
2018-12-24T13:19:20.506Z,29.84
2018-12-24T13:22:14.342Z,30.13
2018-12-24T13:25:02.882Z,28.52
2018-12-24T13:27:33.096Z,28.62
2018-12-24T13:30:02.459Z,24.98
2018-12-24T13:32:31.847Z,26.58
2018-12-24T13:35:02.075Z,28.68
2018-12-24T13:37:32.186Z,25.50
2018-12-24T13:40:01.924Z,24.49
2018-12-24T13:42:31.403Z,25.01
2018-12-24T13:45:01.020Z,27.49
2018-12-24T13:47:30.516Z,27.21
2018-12-24T13:49:59.935Z,28.90
2018-12-24T13:52:29.139Z,30.34
2018-12-24T13:54:58.469Z,30.39
2018-12-24T13:57:27.517Z,33.71
2018-12-24T13:59:56.547Z,31.99
2018-12-24T14:02:25.533Z,32.67
2018-12-24T14:04:54.794Z,32.29
2018-12-24T14:07:23.803Z,31.28
2018-12-24T14:09:53.524Z,32.23
2018-12-24T14:12:23.420Z,38.32
2018-12-24T14:14:53.448Z,42.40
2018-12-24T14:17:23.002Z,38.23
2018-12-24T14:19:52.536Z,37.92
2018-12-24T14:22:22.051Z,39.54
2018-12-24T14:24:51.499Z,38.06
2018-12-24T14:27:21.279Z,37.39
2018-12-24T14:29:50.570Z,36.93
2018-12-24T14:32:19.971Z,34.26
2018-12-24T14:34:49.277Z,33.82
2018-12-24T14:37:18.780Z,31.75
2018-12-24T14:39:48.767Z,34.62
2018-12-24T14:42:18.148Z,34.49
2018-12-24T14:44:47.812Z,32.26
2018-12-24T14:47:16.791Z,33.38
2018-12-24T14:49:46.798Z,33.16
2018-12-24T14:52:16.472Z,34.77
2018-12-24T14:54:46.355Z,33.46
2018-12-24T14:57:15.364Z,32.24
2018-12-24T14:59:45.151Z,33.92
2018-12-24T15:02:14.300Z,33.96
2018-12-24T15:04:44.417Z,35.91
2018-12-24T15:07:35.255Z,35.50
2018-12-24T15:10:05.104Z,33.37
2018-12-24T15:12:34.474Z,34.78
2018-12-24T15:15:03.541Z,36.25
2018-12-24T15:17:33.200Z,33.39
2018-12-24T15:20:02.252Z,35.13
2018-12-24T15:22:32.013Z,35.89
2018-12-24T15:25:01.947Z,37.02
2018-12-24T15:27:31.406Z,36.16
2018-12-24T15:30:01.344Z,34.63
2018-12-24T15:32:30.729Z,33.95
2018-12-24T15:35:00.610Z,34.21
2018-12-24T15:37:30.055Z,34.33
2018-12-24T15:39:59.670Z,34.92
2018-12-24T15:42:29.293Z,36.60
2018-12-24T15:44:58.982Z,36.75
2018-12-24T15:47:28.396Z,35.40
2018-12-24T15:49:57.882Z,36.03
2018-12-24T15:52:27.499Z,38.99
2018-12-24T15:54:56.479Z,40.54
2018-12-24T15:57:26.205Z,36.47
2018-12-24T15:59:55.478Z,35.43
2018-12-24T16:02:25.004Z,35.22
2018-12-24T16:04:54.278Z,34.85
2018-12-24T16:07:23.749Z,33.83
2018-12-24T16:09:53.219Z,34.83
2018-12-24T16:12:22.538Z,36.19
2018-12-24T16:14:52.080Z,36.42
2018-12-24T16:17:21.384Z,38.97
2018-12-24T16:19:51.022Z,37.66
2018-12-24T16:22:20.128Z,35.63
2018-12-24T16:24:49.431Z,35.21
2018-12-24T16:27:18.738Z,34.66
2018-12-24T16:29:47.982Z,33.72
2018-12-24T16:32:17.322Z,36.11
2018-12-24T16:34:46.734Z,34.25
2018-12-24T16:37:15.967Z,33.15
2018-12-24T16:39:45.322Z,34.26
2018-12-24T16:42:14.622Z,34.96
2018-12-24T16:44:43.855Z,33.99
2018-12-24T16:47:12.808Z,34.85
2018-12-24T16:49:43.050Z,33.97
2018-12-24T16:52:13.180Z,34.07
2018-12-24T16:54:42.204Z,34.29
2018-12-24T16:57:11.457Z,33.74
2018-12-24T16:59:40.760Z,33.59
2018-12-24T17:02:10.053Z,33.35
2018-12-24T17:04:39.797Z,35.39
2018-12-24T17:07:09.371Z,37.55
2018-12-24T17:09:39.180Z,37.84
2018-12-24T17:12:08.349Z,38.69
2018-12-24T17:14:37.811Z,37.97
2018-12-24T17:17:07.811Z,37.78
2018-12-24T17:19:37.821Z,38.59
2018-12-24T17:22:07.422Z,40.13
2018-12-24T17:24:36.476Z,38.08
2018-12-24T17:27:06.909Z,38.20
2018-12-24T17:29:36.331Z,36.44
2018-12-24T17:32:06.079Z,36.39
2018-12-24T17:34:35.306Z,34.00
2018-12-24T17:37:04.292Z,39.51
2018-12-24T17:39:33.769Z,36.93
2018-12-24T17:42:02.887Z,36.51
2018-12-24T17:44:32.607Z,35.21
2018-12-24T17:47:01.850Z,34.09
2018-12-24T17:49:31.191Z,33.93
2018-12-24T17:52:00.564Z,33.04
2018-12-24T17:54:29.792Z,36.42
2018-12-24T17:56:58.726Z,34.73
2018-12-24T17:59:27.708Z,35.16
2018-12-24T18:01:57.462Z,34.66
2018-12-24T18:04:27.107Z,32.68
2018-12-24T18:06:56.568Z,34.04
2018-12-24T18:09:25.591Z,33.23
2018-12-24T18:11:55.047Z,33.63
2018-12-24T18:14:25.198Z,33.76
2018-12-24T18:16:54.804Z,33.86
2018-12-24T18:19:23.903Z,34.05
2018-12-24T18:21:53.200Z,34.18
2018-12-24T18:24:22.493Z,35.09
2018-12-24T18:26:52.223Z,35.11
2018-12-24T18:29:21.216Z,35.07
2018-12-24T18:31:50.810Z,35.78
2018-12-24T18:34:19.714Z,35.20
2018-12-24T18:36:49.002Z,36.08
2018-12-24T18:39:18.118Z,38.28
2018-12-24T18:41:47.146Z,37.98
2018-12-24T18:44:17.217Z,36.85
2018-12-24T18:46:46.954Z,36.83
2018-12-24T18:49:16.630Z,35.27
2018-12-24T18:51:45.513Z,35.80
2018-12-24T18:54:14.534Z,36.44
2018-12-24T18:56:43.814Z,35.98
2018-12-24T18:59:12.710Z,35.54
2018-12-24T19:01:41.867Z,37.79
2018-12-24T19:04:11.284Z,37.29
2018-12-24T19:06:40.628Z,36.03
2018-12-24T19:09:09.848Z,34.57
2018-12-24T19:11:39.211Z,36.10
2018-12-24T19:14:09.055Z,37.13
2018-12-24T19:16:38.520Z,38.50
2018-12-24T19:19:08.236Z,36.70
2018-12-24T19:21:43.865Z,36.14
2018-12-24T19:24:08.297Z,36.86
2018-12-24T19:26:37.871Z,37.30
2018-12-24T19:29:07.276Z,37.37
2018-12-24T19:31:36.601Z,36.65
2018-12-24T19:34:05.984Z,36.59
2018-12-24T19:36:35.018Z,37.32
2018-12-24T19:39:05.912Z,40.25
2018-12-24T19:41:35.325Z,41.14
2018-12-24T19:44:04.662Z,40.32
2018-12-24T19:46:34.230Z,40.98
2018-12-24T19:49:03.111Z,40.11
2018-12-24T19:51:32.519Z,38.92
2018-12-24T19:54:02.497Z,38.15
2018-12-24T19:56:31.837Z,40.25
2018-12-24T19:59:01.454Z,41.01
2018-12-24T20:01:31.047Z,40.65
2018-12-24T20:04:00.049Z,42.24
2018-12-24T20:06:29.351Z,39.36
2018-12-24T20:08:59.148Z,40.06
2018-12-24T20:11:28.803Z,40.40
2018-12-24T20:13:58.063Z,39.29
2018-12-24T20:16:27.771Z,36.27
2018-12-24T20:18:56.791Z,38.43
2018-12-24T20:21:26.040Z,37.00
2018-12-24T20:23:56.155Z,37.00
2018-12-24T20:26:25.033Z,36.72
2018-12-24T20:28:53.996Z,37.16
2018-12-24T20:31:23.778Z,36.96
2018-12-24T20:33:52.792Z,38.93
2018-12-24T20:36:22.665Z,35.96
2018-12-24T20:38:51.650Z,38.15
2018-12-24T20:41:20.709Z,37.88
2018-12-24T20:43:49.976Z,40.69
2018-12-24T20:46:19.571Z,37.54
2018-12-24T20:48:49.190Z,36.82
2018-12-24T20:51:18.100Z,34.90
2018-12-24T20:53:48.325Z,37.05
2018-12-24T20:56:17.237Z,37.77
2018-12-24T20:58:46.597Z,35.35
2018-12-24T21:01:15.642Z,35.58
2018-12-24T21:03:44.728Z,35.83
2018-12-24T21:06:14.359Z,35.12
2018-12-24T21:08:44.452Z,34.78
2018-12-24T21:11:13.931Z,35.46
2018-12-24T21:13:42.857Z,36.52
2018-12-24T21:16:12.210Z,38.10
2018-12-24T21:18:41.686Z,35.28
2018-12-24T21:21:11.013Z,34.55
2018-12-24T21:23:40.430Z,37.10
2018-12-24T21:26:09.952Z,37.63
2018-12-24T21:28:40.215Z,40.48
2018-12-24T21:31:09.555Z,39.07
2018-12-24T21:33:39.063Z,39.98
2018-12-24T21:36:08.873Z,38.51
2018-12-24T21:38:38.280Z,39.21
2018-12-24T21:41:07.587Z,37.62
2018-12-24T21:43:36.975Z,40.20
2018-12-24T21:46:06.287Z,42.39
2018-12-24T21:48:35.377Z,39.06
2018-12-24T21:51:04.778Z,39.78
2018-12-24T21:53:33.793Z,40.83
2018-12-24T21:56:03.070Z,39.68
2018-12-24T21:58:32.108Z,38.12
2018-12-24T22:01:01.288Z,38.61
2018-12-24T22:03:31.112Z,39.93
2018-12-24T22:06:01.704Z,40.05
2018-12-24T22:08:31.351Z,41.02
2018-12-24T22:11:00.805Z,42.01
2018-12-24T22:13:30.935Z,40.94
2018-12-24T22:16:02.290Z,39.66
2018-12-24T22:18:32.346Z,38.57
2018-12-24T22:21:02.326Z,40.60
2018-12-24T22:23:31.450Z,39.58
2018-12-24T22:26:00.924Z,38.04
2018-12-24T22:28:30.830Z,40.12
2018-12-24T22:31:00.512Z,38.86
2018-12-24T22:33:30.161Z,36.98
2018-12-24T22:35:59.562Z,37.19
2018-12-24T22:38:28.711Z,36.97
2018-12-24T22:40:58.357Z,36.04
2018-12-24T22:43:28.065Z,35.83
2018-12-24T22:45:57.791Z,36.84
2018-12-24T22:48:27.325Z,38.21
2018-12-24T22:50:56.322Z,35.07
2018-12-24T22:53:25.315Z,34.68
2018-12-24T22:55:54.903Z,34.02
2018-12-24T22:58:24.280Z,38.02
2018-12-24T23:00:53.891Z,37.91
2018-12-24T23:03:22.875Z,34.87
2018-12-24T23:05:52.491Z,34.73
2018-12-24T23:08:21.464Z,34.19
2018-12-24T23:10:50.429Z,34.45
2018-12-24T23:13:20.097Z,34.22
2018-12-24T23:15:49.387Z,33.70
2018-12-24T23:18:19.238Z,34.21
2018-12-24T23:20:49.649Z,34.08
2018-12-24T23:23:18.925Z,35.47
2018-12-24T23:25:48.875Z,35.03
2018-12-24T23:28:17.880Z,35.14
2018-12-24T23:30:46.822Z,35.38
2018-12-24T23:33:16.030Z,35.51
2018-12-24T23:35:45.336Z,35.18
2018-12-24T23:38:15.041Z,35.09
2018-12-24T23:40:44.339Z,36.58
2018-12-24T23:43:13.534Z,35.32
2018-12-24T23:45:43.041Z,35.47
2018-12-24T23:48:12.011Z,35.64
2018-12-24T23:50:40.977Z,35.28
2018-12-24T23:53:10.117Z,34.80
2018-12-24T23:55:39.420Z,35.15
2018-12-24T23:58:08.729Z,36.40
